sensor_id;sensor_type;location;lat;lon;timestamp;pressure;altitude;pressure_sealevel;temperature;humidity
58295;BME280;45705;55.592;37.460;2023-02-20T00:00:09;97010.31;;;-5.80;100.00
58295;BME280;45705;55.592;37.460;2023-02-20T00:02:35;97009.09;;;-6.05;100.00
58295;BME280;45705;55.592;37.460;2023-02-20T00:05:01;97005.44;;;-6.04;100.00
58295;BME280;45705;55.592;37.460;2023-02-20T00:07:26;97001.09;;;-6.20;100.00
58295;BME280;45705;55.592;37.460;2023-02-20T00:09:52;96997.44;;;-6.09;100.00
58295;BME280;45705;55.592;37.460;2023-02-20T00:12:17;97005.66;;;-6.10;100.00
58295;BME280;45705;55.592;37.460;2023-02-20T00:14:43;97002.06;;;-6.26;100.00
58295;BME280;45705;55.592;37.460;2023-02-20T00:17:09;96995.94;;;-6.00;100.00
58295;BME280;45705;55.592;37.460;2023-02-20T00:19:35;96992.16;;;-6.09;100.00
58295;BME280;45705;55.592;37.460;2023-02-20T00:22:00;96990.94;;;-5.96;100.00
58295;BME280;45705;55.592;37.460;2023-02-20T00:24:26;96996.91;;;-6.11;100.00
58295;BME280;45705;55.592;37.460;2023-02-20T00:26:53;96996.47;;;-5.93;100.00
58295;BME280;45705;55.592;37.460;2023-02-20T00:29:21;97000.72;;;-5.97;100.00
58295;BME280;45705;55.592;37.460;2023-02-20T00:31:51;96994.25;;;-6.11;100.00
58295;BME280;45705;55.592;37.460;2023-02-20T00:34:18;96999.63;;;-6.01;100.00
58295;BME280;45705;55.592;37.460;2023-02-20T00:36:45;96998.69;;;-5.74;100.00
58295;BME280;45705;55.592;37.460;2023-02-20T00:39:11;96988.34;;;-5.81;100.00
58295;BME280;45705;55.592;37.460;2023-02-20T00:41:36;96996.59;;;-5.72;100.00
58295;BME280;45705;55.592;37.460;2023-02-20T00:44:02;96994.56;;;-5.55;100.00
58295;BME280;45705;55.592;37.460;2023-02-20T00:46:28;96990.75;;;-5.79;100.00
58295;BME280;45705;55.592;37.460;2023-02-20T00:48:54;96989.38;;;-5.87;100.00
58295;BME280;45705;55.592;37.460;2023-02-20T00:51:38;96994.38;;;-5.90;100.00
58295;BME280;45705;55.592;37.460;2023-02-20T00:54:04;96984.28;;;-5.94;100.00
58295;BME280;45705;55.592;37.460;2023-02-20T00:56:30;96983.00;;;-5.91;100.00
58295;BME280;45705;55.592;37.460;2023-02-20T00:58:56;96981.13;;;-5.96;100.00
58295;BME280;45705;55.592;37.460;2023-02-20T01:01:22;96990.63;;;-6.00;100.00
58295;BME280;45705;55.592;37.460;2023-02-20T01:03:49;96977.38;;;-6.05;100.00
58295;BME280;45705;55.592;37.460;2023-02-20T01:06:15;96982.81;;;-5.74;100.00
58295;BME280;45705;55.592;37.460;2023-02-20T01:08:42;96984.31;;;-5.88;100.00
58295;BME280;45705;55.592;37.460;2023-02-20T01:11:08;96981.13;;;-5.96;100.00
58295;BME280;45705;55.592;37.460;2023-02-20T01:13:34;96990.19;;;-5.81;100.00
58295;BME280;45705;55.592;37.460;2023-02-20T01:16:00;96982.47;;;-5.88;100.00
58295;BME280;45705;55.592;37.460;2023-02-20T01:18:26;96990.94;;;-5.86;100.00
58295;BME280;45705;55.592;37.460;2023-02-20T01:20:52;96983.63;;;-5.74;100.00
58295;BME280;45705;55.592;37.460;2023-02-20T01:23:20;96990.00;;;-5.69;100.00
58295;BME280;45705;55.592;37.460;2023-02-20T01:25:46;96998.53;;;-5.57;100.00
58295;BME280;45705;55.592;37.460;2023-02-20T01:28:12;96993.44;;;-5.69;100.00
58295;BME280;45705;55.592;37.460;2023-02-20T01:30:39;96992.41;;;-5.68;100.00
58295;BME280;45705;55.592;37.460;2023-02-20T01:33:05;96992.97;;;-5.56;100.00
58295;BME280;45705;55.592;37.460;2023-02-20T01:35:31;97002.78;;;-5.51;100.00
58295;BME280;45705;55.592;37.460;2023-02-20T01:37:58;96997.75;;;-5.53;100.00
58295;BME280;45705;55.592;37.460;2023-02-20T01:40:26;96994.72;;;-5.77;100.00
58295;BME280;45705;55.592;37.460;2023-02-20T01:42:52;96992.91;;;-5.71;100.00
58295;BME280;45705;55.592;37.460;2023-02-20T01:47:52;96991.00;;;-5.81;100.00
58295;BME280;45705;55.592;37.460;2023-02-20T01:50:23;96993.94;;;-5.77;100.00
58295;BME280;45705;55.592;37.460;2023-02-20T01:52:52;96992.28;;;-5.88;100.00
58295;BME280;45705;55.592;37.460;2023-02-20T01:55:22;96998.69;;;-5.79;100.00
58295;BME280;45705;55.592;37.460;2023-02-20T01:58:16;96991.81;;;-5.70;100.00
58295;BME280;45705;55.592;37.460;2023-02-20T02:00:44;96990.53;;;-5.62;100.00
58295;BME280;45705;55.592;37.460;2023-02-20T02:03:12;96992.34;;;-5.73;100.00
58295;BME280;45705;55.592;37.460;2023-02-20T02:05:42;96999.22;;;-5.72;100.00
58295;BME280;45705;55.592;37.460;2023-02-20T02:08:10;96990.66;;;-5.89;100.00
58295;BME280;45705;55.592;37.460;2023-02-20T02:10:48;96998.69;;;-5.74;100.00
58295;BME280;45705;55.592;37.460;2023-02-20T02:13:16;97006.63;;;-5.79;100.00
58295;BME280;45705;55.592;37.460;2023-02-20T02:15:42;96998.97;;;-5.76;100.00
58295;BME280;45705;55.592;37.460;2023-02-20T02:35:12;97029.84;;;-5.86;100.00
58295;BME280;45705;55.592;37.460;2023-02-20T02:38:14;97031.19;;;-5.84;100.00
58295;BME280;45705;55.592;37.460;2023-02-20T02:44:06;97033.81;;;-5.89;100.00
58295;BME280;45705;55.592;37.460;2023-02-20T02:46:39;97033.59;;;-5.82;100.00
58295;BME280;45705;55.592;37.460;2023-02-20T02:49:34;97026.72;;;-5.78;100.00
58295;BME280;45705;55.592;37.460;2023-02-20T02:52:02;97021.19;;;-5.77;100.00
58295;BME280;45705;55.592;37.460;2023-02-20T02:54:29;97027.84;;;-6.11;100.00
58295;BME280;45705;55.592;37.460;2023-02-20T02:57:21;97023.81;;;-6.19;100.00
58295;BME280;45705;55.592;37.460;2023-02-20T02:59:53;97034.91;;;-6.22;100.00
58295;BME280;45705;55.592;37.460;2023-02-20T03:02:22;97016.84;;;-6.30;100.00
58295;BME280;45705;55.592;37.460;2023-02-20T03:04:50;97029.72;;;-6.12;100.00
58295;BME280;45705;55.592;37.460;2023-02-20T03:07:18;97030.44;;;-6.22;100.00
58295;BME280;45705;55.592;37.460;2023-02-20T03:09:49;97029.59;;;-6.22;100.00
58295;BME280;45705;55.592;37.460;2023-02-20T03:12:18;97033.06;;;-6.22;100.00
58295;BME280;45705;55.592;37.460;2023-02-20T03:14:55;97035.00;;;-6.12;100.00
58295;BME280;45705;55.592;37.460;2023-02-20T03:17:46;97024.75;;;-6.36;100.00
58295;BME280;45705;55.592;37.460;2023-02-20T03:20:16;97028.09;;;-6.13;100.00
58295;BME280;45705;55.592;37.460;2023-02-20T03:22:51;97020.16;;;-6.18;100.00
58295;BME280;45705;55.592;37.460;2023-02-20T03:25:21;97024.78;;;-6.30;100.00
58295;BME280;45705;55.592;37.460;2023-02-20T03:27:57;97022.75;;;-6.23;100.00
58295;BME280;45705;55.592;37.460;2023-02-20T03:33:19;97030.84;;;-6.03;100.00
58295;BME280;45705;55.592;37.460;2023-02-20T03:36:08;97021.66;;;-6.22;100.00
58295;BME280;45705;55.592;37.460;2023-02-20T03:39:02;97028.03;;;-6.23;100.00
58295;BME280;45705;55.592;37.460;2023-02-20T03:41:48;97032.59;;;-6.14;100.00
58295;BME280;45705;55.592;37.460;2023-02-20T03:44:37;97036.00;;;-6.18;100.00
58295;BME280;45705;55.592;37.460;2023-02-20T03:47:05;97034.91;;;-6.22;100.00
58295;BME280;45705;55.592;37.460;2023-02-20T03:49:39;97040.09;;;-6.32;100.00
58295;BME280;45705;55.592;37.460;2023-02-20T03:52:09;97032.19;;;-6.32;100.00
58295;BME280;45705;55.592;37.460;2023-02-20T03:54:38;97030.91;;;-6.25;100.00
58295;BME280;45705;55.592;37.460;2023-02-20T03:57:09;97036.97;;;-6.29;100.00
58295;BME280;45705;55.592;37.460;2023-02-20T03:59:45;97040.28;;;-6.12;100.00
58295;BME280;45705;55.592;37.460;2023-02-20T04:02:21;97041.47;;;-5.93;100.00
58295;BME280;45705;55.592;37.460;2023-02-20T04:04:51;97008.91;;;-6.36;100.00
58295;BME280;45705;55.592;37.460;2023-02-20T04:07:32;97039.19;;;-6.16;100.00
58295;BME280;45705;55.592;37.460;2023-02-20T04:10:01;97039.09;;;-6.26;100.00
58295;BME280;45705;55.592;37.460;2023-02-20T04:12:35;97035.41;;;-6.25;100.00
58295;BME280;45705;55.592;37.460;2023-02-20T04:15:03;97045.03;;;-6.14;100.00
58295;BME280;45705;55.592;37.460;2023-02-20T04:17:36;97035.97;;;-6.23;100.00
58295;BME280;45705;55.592;37.460;2023-02-20T04:20:04;97039.81;;;-6.63;100.00
58295;BME280;45705;55.592;37.460;2023-02-20T04:22:37;97041.81;;;-6.48;100.00
58295;BME280;45705;55.592;37.460;2023-02-20T04:25:36;97051.22;;;-6.63;100.00
58295;BME280;45705;55.592;37.460;2023-02-20T04:28:04;97055.44;;;-6.35;100.00
58295;BME280;45705;55.592;37.460;2023-02-20T04:30:41;97052.38;;;-6.76;100.00
58295;BME280;45705;55.592;37.460;2023-02-20T04:33:10;97057.69;;;-6.76;100.00
58295;BME280;45705;55.592;37.460;2023-02-20T04:35:38;97056.28;;;-6.56;100.00
58295;BME280;45705;55.592;37.460;2023-02-20T04:38:04;97056.44;;;-6.41;100.00
58295;BME280;45705;55.592;37.460;2023-02-20T04:40:30;97058.28;;;-6.68;100.00
58295;BME280;45705;55.592;37.460;2023-02-20T04:42:56;97062.75;;;-6.42;100.00
58295;BME280;45705;55.592;37.460;2023-02-20T04:45:22;97060.97;;;-6.36;100.00
58295;BME280;45705;55.592;37.460;2023-02-20T04:47:48;97065.69;;;-6.65;100.00
58295;BME280;45705;55.592;37.460;2023-02-20T04:50:28;97056.75;;;-6.64;100.00
58295;BME280;45705;55.592;37.460;2023-02-20T04:52:55;97056.69;;;-6.69;100.00
58295;BME280;45705;55.592;37.460;2023-02-20T04:55:22;97062.19;;;-6.49;100.00
58295;BME280;45705;55.592;37.460;2023-02-20T04:57:52;97061.19;;;-6.43;100.00
58295;BME280;45705;55.592;37.460;2023-02-20T05:00:20;97046.31;;;-6.49;100.00
58295;BME280;45705;55.592;37.460;2023-02-20T05:02:46;97060.13;;;-6.42;100.00
58295;BME280;45705;55.592;37.460;2023-02-20T05:05:19;97062.28;;;-6.39;100.00
58295;BME280;45705;55.592;37.460;2023-02-20T05:07:45;97063.66;;;-6.31;100.00
58295;BME280;45705;55.592;37.460;2023-02-20T05:10:19;97064.75;;;-6.54;100.00
58295;BME280;45705;55.592;37.460;2023-02-20T05:12:45;97062.97;;;-6.76;100.00
58295;BME280;45705;55.592;37.460;2023-02-20T05:15:12;97069.56;;;-6.78;100.00
58295;BME280;45705;55.592;37.460;2023-02-20T05:17:38;97060.13;;;-6.69;100.00
58295;BME280;45705;55.592;37.460;2023-02-20T05:20:05;97067.25;;;-6.42;100.00
58295;BME280;45705;55.592;37.460;2023-02-20T05:22:31;97070.94;;;-6.70;100.00
58295;BME280;45705;55.592;37.460;2023-02-20T05:24:57;97063.56;;;-6.68;100.00
58295;BME280;45705;55.592;37.460;2023-02-20T05:27:23;97069.72;;;-6.85;100.00
58295;BME280;45705;55.592;37.460;2023-02-20T05:29:52;97080.66;;;-6.98;100.00
58295;BME280;45705;55.592;37.460;2023-02-20T05:32:20;97072.19;;;-7.00;100.00
58295;BME280;45705;55.592;37.460;2023-02-20T05:34:46;97070.72;;;-6.91;100.00
58295;BME280;45705;55.592;37.460;2023-02-20T05:37:14;97064.81;;;-6.76;100.00
58295;BME280;45705;55.592;37.460;2023-02-20T05:39:40;97061.69;;;-6.95;100.00
58295;BME280;45705;55.592;37.460;2023-02-20T05:42:06;97078.03;;;-6.49;100.00
58295;BME280;45705;55.592;37.460;2023-02-20T05:44:33;97081.53;;;-6.70;100.00
58295;BME280;45705;55.592;37.460;2023-02-20T05:46:59;97084.75;;;-6.63;100.00
58295;BME280;45705;55.592;37.460;2023-02-20T05:49:24;97079.81;;;-6.27;100.00
58295;BME280;45705;55.592;37.460;2023-02-20T05:51:50;97087.28;;;-6.74;100.00
58295;BME280;45705;55.592;37.460;2023-02-20T05:54:18;97089.09;;;-6.52;100.00
58295;BME280;45705;55.592;37.460;2023-02-20T05:56:45;97089.75;;;-6.40;100.00
58295;BME280;45705;55.592;37.460;2023-02-20T05:59:12;97089.41;;;-6.21;100.00
58295;BME280;45705;55.592;37.460;2023-02-20T06:01:38;97087.84;;;-6.17;100.00
58295;BME280;45705;55.592;37.460;2023-02-20T06:05:09;97090.31;;;-6.10;100.00
58295;BME280;45705;55.592;37.460;2023-02-20T06:07:35;97089.31;;;-6.31;99.30
58295;BME280;45705;55.592;37.460;2023-02-20T06:10:02;97101.59;;;-6.47;99.86
58295;BME280;45705;55.592;37.460;2023-02-20T06:12:28;97104.56;;;-6.39;100.00
58295;BME280;45705;55.592;37.460;2023-02-20T06:14:54;97096.88;;;-6.13;99.39
58295;BME280;45705;55.592;37.460;2023-02-20T06:17:19;97096.00;;;-5.86;97.58
58295;BME280;45705;55.592;37.460;2023-02-20T06:19:45;97108.53;;;-6.09;97.04
58295;BME280;45705;55.592;37.460;2023-02-20T06:22:11;97107.44;;;-6.13;97.93
58295;BME280;45705;55.592;37.460;2023-02-20T06:24:37;97109.47;;;-6.25;98.37
58295;BME280;45705;55.592;37.460;2023-02-20T06:27:02;97116.22;;;-6.07;98.59
58295;BME280;45705;55.592;37.460;2023-02-20T06:29:28;97123.44;;;-6.03;97.22
58295;BME280;45705;55.592;37.460;2023-02-20T06:31:57;97112.75;;;-6.13;96.65
58295;BME280;45705;55.592;37.460;2023-02-20T06:34:23;97113.03;;;-6.09;97.25
58295;BME280;45705;55.592;37.460;2023-02-20T06:36:50;97108.13;;;-5.96;96.42
58295;BME280;45705;55.592;37.460;2023-02-20T06:39:16;97109.19;;;-5.91;95.70
58295;BME280;45705;55.592;37.460;2023-02-20T06:41:41;97115.56;;;-5.87;96.00
58295;BME280;45705;55.592;37.460;2023-02-20T06:44:08;97109.84;;;-5.79;95.55
58295;BME280;45705;55.592;37.460;2023-02-20T06:46:34;97115.31;;;-5.54;94.24
58295;BME280;45705;55.592;37.460;2023-02-20T06:49:00;97105.75;;;-5.55;92.44
58295;BME280;45705;55.592;37.460;2023-02-20T06:51:31;97109.97;;;-5.59;92.47
58295;BME280;45705;55.592;37.460;2023-02-20T06:53:57;97116.53;;;-5.29;92.50
58295;BME280;45705;55.592;37.460;2023-02-20T06:56:26;97110.78;;;-5.16;90.41
58295;BME280;45705;55.592;37.460;2023-02-20T06:58:53;97104.47;;;-5.47;90.43
58295;BME280;45705;55.592;37.460;2023-02-20T07:01:22;97121.03;;;-5.67;91.32
58295;BME280;45705;55.592;37.460;2023-02-20T07:03:49;97116.75;;;-5.36;90.77
58295;BME280;45705;55.592;37.460;2023-02-20T07:06:15;97118.69;;;-5.21;88.99
58295;BME280;45705;55.592;37.460;2023-02-20T07:08:41;97121.44;;;-5.05;88.73
58295;BME280;45705;55.592;37.460;2023-02-20T07:11:07;97121.38;;;-5.10;88.55
58295;BME280;45705;55.592;37.460;2023-02-20T07:13:33;97124.34;;;-5.49;90.12
58295;BME280;45705;55.592;37.460;2023-02-20T07:15:58;97111.47;;;-5.73;90.38
58295;BME280;45705;55.592;37.460;2023-02-20T07:18:24;97117.91;;;-5.59;91.17
58295;BME280;45705;55.592;37.460;2023-02-20T07:20:55;97122.03;;;-5.36;89.98
58295;BME280;45705;55.592;37.460;2023-02-20T07:23:21;97132.44;;;-5.29;89.35
58295;BME280;45705;55.592;37.460;2023-02-20T07:25:46;97124.50;;;-5.24;88.52
58295;BME280;45705;55.592;37.460;2023-02-20T07:28:13;97121.59;;;-5.22;88.29
58295;BME280;45705;55.592;37.460;2023-02-20T07:30:39;97124.03;;;-5.16;87.66
58295;BME280;45705;55.592;37.460;2023-02-20T07:33:05;97117.44;;;-5.03;86.67
58295;BME280;45705;55.592;37.460;2023-02-20T07:35:30;97128.91;;;-4.87;86.40
58295;BME280;45705;55.592;37.460;2023-02-20T07:38:01;97119.38;;;-4.88;86.61
58295;BME280;45705;55.592;37.460;2023-02-20T07:40:27;97123.69;;;-4.77;85.98
58295;BME280;45705;55.592;37.460;2023-02-20T07:42:53;97130.53;;;-4.86;85.98
58295;BME280;45705;55.592;37.460;2023-02-20T07:45:21;97132.59;;;-4.93;86.51
58295;BME280;45705;55.592;37.460;2023-02-20T07:47:47;97135.25;;;-4.93;85.52
58295;BME280;45705;55.592;37.460;2023-02-20T07:50:14;97130.59;;;-4.65;84.96
58295;BME280;45705;55.592;37.460;2023-02-20T07:52:41;97132.31;;;-4.33;81.64
58295;BME280;45705;55.592;37.460;2023-02-20T07:55:06;97143.25;;;-4.88;81.85
58295;BME280;45705;55.592;37.460;2023-02-20T07:57:34;97144.19;;;-5.04;83.61
58295;BME280;45705;55.592;37.460;2023-02-20T08:00:01;97144.75;;;-5.02;83.85
58295;BME280;45705;55.592;37.460;2023-02-20T08:02:26;97143.19;;;-4.98;83.73
58295;BME280;45705;55.592;37.460;2023-02-20T08:04:52;97138.47;;;-4.86;82.80
58295;BME280;45705;55.592;37.460;2023-02-20T08:07:18;97136.25;;;-5.09;83.32
58295;BME280;45705;55.592;37.460;2023-02-20T08:09:46;97141.09;;;-4.91;83.24
58295;BME280;45705;55.592;37.460;2023-02-20T08:12:12;97144.53;;;-4.90;84.15
58295;BME280;45705;55.592;37.460;2023-02-20T08:14:38;97133.00;;;-5.17;84.79
58295;BME280;45705;55.592;37.460;2023-02-20T08:17:03;97154.16;;;-5.22;84.69
58295;BME280;45705;55.592;37.460;2023-02-20T08:19:29;97155.66;;;-4.93;84.81
58295;BME280;45705;55.592;37.460;2023-02-20T08:21:55;97148.69;;;-4.57;82.73
58295;BME280;45705;55.592;37.460;2023-02-20T08:24:21;97144.44;;;-4.53;81.59
58295;BME280;45705;55.592;37.460;2023-02-20T08:26:47;97154.66;;;-4.09;79.82
58295;BME280;45705;55.592;37.460;2023-02-20T08:29:14;97159.38;;;-4.26;81.44
58295;BME280;45705;55.592;37.460;2023-02-20T08:31:40;97159.81;;;-4.50;81.37
58295;BME280;45705;55.592;37.460;2023-02-20T08:34:06;97148.28;;;-4.81;83.43
58295;BME280;45705;55.592;37.460;2023-02-20T08:36:31;97165.53;;;-4.10;82.45
58295;BME280;45705;55.592;37.460;2023-02-20T08:38:58;97171.25;;;-4.44;81.51
58295;BME280;45705;55.592;37.460;2023-02-20T08:41:28;97171.06;;;-4.22;81.43
58295;BME280;45705;55.592;37.460;2023-02-20T08:43:53;97170.03;;;-4.11;79.79
58295;BME280;45705;55.592;37.460;2023-02-20T08:46:19;97179.53;;;-4.25;79.76
58295;BME280;45705;55.592;37.460;2023-02-20T08:48:45;97171.66;;;-4.73;81.85
58295;BME280;45705;55.592;37.460;2023-02-20T08:51:11;97165.19;;;-4.40;81.60
58295;BME280;45705;55.592;37.460;2023-02-20T08:53:38;97169.22;;;-4.17;81.62
58295;BME280;45705;55.592;37.460;2023-02-20T08:56:05;97164.22;;;-3.82;78.98
58295;BME280;45705;55.592;37.460;2023-02-20T08:58:31;97163.38;;;-4.24;80.02
58295;BME280;45705;55.592;37.460;2023-02-20T09:00:56;97152.44;;;-4.38;80.76
58295;BME280;45705;55.592;37.460;2023-02-20T09:03:22;97152.44;;;-4.38;81.42
58295;BME280;45705;55.592;37.460;2023-02-20T09:05:48;97154.63;;;-4.14;79.57
58295;BME280;45705;55.592;37.460;2023-02-20T09:08:14;97152.56;;;-3.56;79.39
58295;BME280;45705;55.592;37.460;2023-02-20T09:10:40;97167.44;;;-3.54;77.02
58295;BME280;45705;55.592;37.460;2023-02-20T09:13:06;97144.59;;;-3.50;75.68
58295;BME280;45705;55.592;37.460;2023-02-20T09:15:32;97162.56;;;-2.81;74.72
58295;BME280;45705;55.592;37.460;2023-02-20T09:18:03;97161.00;;;-2.92;72.56
58295;BME280;45705;55.592;37.460;2023-02-20T09:20:31;97160.69;;;-2.85;71.95
58295;BME280;45705;55.592;37.460;2023-02-20T09:22:58;97160.84;;;-2.51;70.24
58295;BME280;45705;55.592;37.460;2023-02-20T09:25:24;97151.09;;;-2.16;68.67
58295;BME280;45705;55.592;37.460;2023-02-20T09:27:50;97161.63;;;-2.45;68.75
58295;BME280;45705;55.592;37.460;2023-02-20T09:30:18;97153.03;;;-2.27;69.27
58295;BME280;45705;55.592;37.460;2023-02-20T09:32:48;97162.19;;;-1.99;67.41
58295;BME280;45705;55.592;37.460;2023-02-20T09:35:24;97159.00;;;-2.01;66.07
58295;BME280;45705;55.592;37.460;2023-02-20T09:37:50;97163.28;;;-2.00;66.63
58295;BME280;45705;55.592;37.460;2023-02-20T09:40:20;97161.75;;;-2.16;68.34
58295;BME280;45705;55.592;37.460;2023-02-20T09:45:21;97160.28;;;-1.93;65.35
58295;BME280;45705;55.592;37.460;2023-02-20T09:48:04;97156.44;;;-2.16;67.41
58295;BME280;45705;55.592;37.460;2023-02-20T09:51:10;97158.19;;;-2.56;67.88
58295;BME280;45705;55.592;37.460;2023-02-20T09:53:37;97156.16;;;-2.74;70.36
58295;BME280;45705;55.592;37.460;2023-02-20T09:56:10;97157.25;;;-2.81;71.77
58295;BME280;45705;55.592;37.460;2023-02-20T09:58:44;97161.34;;;-2.44;69.87
58295;BME280;45705;55.592;37.460;2023-02-20T10:01:14;97160.78;;;-2.41;69.30
58295;BME280;45705;55.592;37.460;2023-02-20T10:06:40;97150.59;;;-2.23;68.24
58295;BME280;45705;55.592;37.460;2023-02-20T10:09:10;97147.91;;;-2.18;68.98
58295;BME280;45705;55.592;37.460;2023-02-20T10:11:43;97151.34;;;-2.07;68.87
58295;BME280;45705;55.592;37.460;2023-02-20T10:16:50;97145.25;;;-2.18;68.76
58295;BME280;45705;55.592;37.460;2023-02-20T10:25:01;97141.56;;;-2.22;68.68
58295;BME280;45705;55.592;37.460;2023-02-20T10:30:19;97154.09;;;-2.28;68.30
58295;BME280;45705;55.592;37.460;2023-02-20T10:38:21;97153.06;;;-1.87;66.89
58295;BME280;45705;55.592;37.460;2023-02-20T10:40:53;97156.34;;;-2.06;67.93
58295;BME280;45705;55.592;37.460;2023-02-20T10:43:52;97158.06;;;-2.20;67.69
58295;BME280;45705;55.592;37.460;2023-02-20T10:46:39;97158.06;;;-2.20;67.23
58295;BME280;45705;55.592;37.460;2023-02-20T10:49:12;97151.03;;;-2.06;67.64
58295;BME280;45705;55.592;37.460;2023-02-20T10:51:43;97144.81;;;-2.35;68.88
58295;BME280;45705;55.592;37.460;2023-02-20T11:02:38;97147.66;;;-2.22;69.17
58295;BME280;45705;55.592;37.460;2023-02-20T11:05:14;97146.28;;;-2.14;69.61
58295;BME280;45705;55.592;37.460;2023-02-20T11:07:41;97152.81;;;-2.41;71.19
58295;BME280;45705;55.592;37.460;2023-02-20T11:10:07;97148.16;;;-2.69;71.05
58295;BME280;45705;55.592;37.460;2023-02-20T11:12:43;97142.63;;;-2.23;70.97
58295;BME280;45705;55.592;37.460;2023-02-20T11:15:14;97141.28;;;-1.76;67.74
58295;BME280;45705;55.592;37.460;2023-02-20T11:17:41;97138.88;;;-1.77;67.19
58295;BME280;45705;55.592;37.460;2023-02-20T11:23:42;97140.19;;;-1.75;64.70
58295;BME280;45705;55.592;37.460;2023-02-20T11:29:03;97141.47;;;-1.67;65.01
58295;BME280;45705;55.592;37.460;2023-02-20T11:31:30;97148.69;;;-1.73;64.66
58295;BME280;45705;55.592;37.460;2023-02-20T11:33:56;97155.03;;;-2.03;66.86
58295;BME280;45705;55.592;37.460;2023-02-20T11:36:24;97152.19;;;-1.77;65.47
58295;BME280;45705;55.592;37.460;2023-02-20T11:38:58;97149.81;;;-1.79;64.73
58295;BME280;45705;55.592;37.460;2023-02-20T11:41:27;97152.13;;;-2.12;65.99
58295;BME280;45705;55.592;37.460;2023-02-20T11:44:16;97160.47;;;-1.84;65.97
58295;BME280;45705;55.592;37.460;2023-02-20T11:49:34;97163.97;;;-1.84;66.89
58295;BME280;45705;55.592;37.460;2023-02-20T11:52:19;97156.75;;;-1.78;64.62
58295;BME280;45705;55.592;37.460;2023-02-20T11:54:45;97167.06;;;-2.16;66.79
58295;BME280;45705;55.592;37.460;2023-02-20T11:59:42;97156.44;;;-2.16;67.59
58295;BME280;45705;55.592;37.460;2023-02-20T12:04:44;97163.03;;;-2.03;65.45
58295;BME280;45705;55.592;37.460;2023-02-20T12:07:40;97167.41;;;-2.33;66.64
58295;BME280;45705;55.592;37.460;2023-02-20T12:12:38;97165.13;;;-2.55;68.14
58295;BME280;45705;55.592;37.460;2023-02-20T12:15:11;97178.44;;;-2.60;69.71
58295;BME280;45705;55.592;37.460;2023-02-20T12:18:11;97171.50;;;-2.51;68.97
58295;BME280;45705;55.592;37.460;2023-02-20T12:32:02;97176.28;;;-2.48;68.50
58295;BME280;45705;55.592;37.460;2023-02-20T12:46:22;97185.44;;;-2.90;70.91
58295;BME280;45705;55.592;37.460;2023-02-20T12:49:25;97186.22;;;-2.89;69.82
58295;BME280;45705;55.592;37.460;2023-02-20T12:55:17;97188.66;;;-3.03;70.48
58295;BME280;45705;55.592;37.460;2023-02-20T12:58:14;97184.91;;;-2.97;70.88
58295;BME280;45705;55.592;37.460;2023-02-20T13:00:47;97177.53;;;-3.15;70.62
58295;BME280;45705;55.592;37.460;2023-02-20T13:03:24;97172.19;;;-3.05;71.30
58295;BME280;45705;55.592;37.460;2023-02-20T13:05:53;97180.97;;;-3.15;71.02
58295;BME280;45705;55.592;37.460;2023-02-20T13:11:15;97171.16;;;-3.20;71.71
58295;BME280;45705;55.592;37.460;2023-02-20T13:17:07;97179.63;;;-3.79;73.48
58295;BME280;45705;55.592;37.460;2023-02-20T13:22:06;97176.47;;;-3.45;72.11
58295;BME280;45705;55.592;37.460;2023-02-20T13:24:34;97177.22;;;-3.86;73.12
58295;BME280;45705;55.592;37.460;2023-02-20T13:27:03;97179.91;;;-3.65;74.20
58295;BME280;45705;55.592;37.460;2023-02-20T13:30:08;97180.66;;;-4.01;75.74
58295;BME280;45705;55.592;37.460;2023-02-20T13:32:35;97178.03;;;-3.65;73.88
58295;BME280;45705;55.592;37.460;2023-02-20T13:38:09;97180.72;;;-3.44;73.05
58295;BME280;45705;55.592;37.460;2023-02-20T13:40:38;97181.75;;;-3.71;73.93
58295;BME280;45705;55.592;37.460;2023-02-20T13:43:18;97178.34;;;-3.66;73.36
58295;BME280;45705;55.592;37.460;2023-02-20T13:53:43;97185.22;;;-3.55;71.32
58295;BME280;45705;55.592;37.460;2023-02-20T13:58:46;97190.28;;;-3.59;70.59
58295;BME280;45705;55.592;37.460;2023-02-20T14:01:11;97190.78;;;-3.67;69.94
58295;BME280;45705;55.592;37.460;2023-02-20T14:03:37;97187.88;;;-3.70;70.58
58295;BME280;45705;55.592;37.460;2023-02-20T14:06:13;97187.63;;;-3.74;71.17
58295;BME280;45705;55.592;37.460;2023-02-20T14:08:41;97188.06;;;-4.08;72.12
58295;BME280;45705;55.592;37.460;2023-02-20T14:11:23;97185.22;;;-3.81;71.67
58295;BME280;45705;55.592;37.460;2023-02-20T14:13:50;97192.66;;;-3.78;72.73
58295;BME280;45705;55.592;37.460;2023-02-20T14:16:22;97198.75;;;-3.87;71.25
58295;BME280;45705;55.592;37.460;2023-02-20T14:18:49;97198.69;;;-4.08;71.99
58295;BME280;45705;55.592;37.460;2023-02-20T14:21:21;97207.69;;;-4.14;73.15
58295;BME280;45705;55.592;37.460;2023-02-20T14:23:51;97198.66;;;-4.13;74.01
58295;BME280;45705;55.592;37.460;2023-02-20T14:26:21;97199.75;;;-4.04;74.15
58295;BME280;45705;55.592;37.460;2023-02-20T14:28:50;97208.75;;;-4.15;74.69
58295;BME280;45705;55.592;37.460;2023-02-20T14:31:30;97206.13;;;-4.10;72.99
58295;BME280;45705;55.592;37.460;2023-02-20T14:33:58;97205.06;;;-4.14;72.33
58295;BME280;45705;55.592;37.460;2023-02-20T14:41:37;97205.06;;;-4.14;73.44
58295;BME280;45705;55.592;37.460;2023-02-20T14:44:14;97201.31;;;-4.23;73.83
58295;BME280;45705;55.592;37.460;2023-02-20T14:46:44;97203.94;;;-4.28;76.07
58295;BME280;45705;55.592;37.460;2023-02-20T14:49:14;97206.88;;;-4.20;75.44
58295;BME280;45705;55.592;37.460;2023-02-20T14:51:40;97208.25;;;-4.12;74.85
58295;BME280;45705;55.592;37.460;2023-02-20T14:54:17;97220.22;;;-3.94;74.69
58295;BME280;45705;55.592;37.460;2023-02-20T14:56:44;97217.75;;;-4.26;76.13
58295;BME280;45705;55.592;37.460;2023-02-20T15:02:16;97214.63;;;-4.08;75.53
58295;BME280;45705;55.592;37.460;2023-02-20T15:05:14;97215.88;;;-4.31;75.44
58295;BME280;45705;55.592;37.460;2023-02-20T15:07:41;97213.44;;;-4.43;76.44
58295;BME280;45705;55.592;37.460;2023-02-20T15:10:43;97208.63;;;-4.51;75.95